sensor_id;sensor_type;location;lat;lon;timestamp;P1;durP1;ratioP1;P2;durP2;ratioP2
12350;SDS011;6240;51.538;7.696;2023-03-23T00:00:50;5.37;;;1.93;;
12350;SDS011;6240;51.538;7.696;2023-03-23T00:03:19;4.30;;;2.53;;
12350;SDS011;6240;51.538;7.696;2023-03-23T00:05:48;3.90;;;2.10;;
12350;SDS011;6240;51.538;7.696;2023-03-23T00:08:16;2.10;;;1.90;;
12350;SDS011;6240;51.538;7.696;2023-03-23T00:10:47;2.40;;;2.03;;
12350;SDS011;6240;51.538;7.696;2023-03-23T00:13:17;6.83;;;2.70;;
12350;SDS011;6240;51.538;7.696;2023-03-23T00:15:45;3.87;;;2.20;;
12350;SDS011;6240;51.538;7.696;2023-03-23T00:18:14;3.00;;;2.00;;
12350;SDS011;6240;51.538;7.696;2023-03-23T00:20:48;3.17;;;2.13;;
12350;SDS011;6240;51.538;7.696;2023-03-23T00:23:15;4.77;;;2.37;;
12350;SDS011;6240;51.538;7.696;2023-03-23T00:25:46;2.70;;;2.10;;
12350;SDS011;6240;51.538;7.696;2023-03-23T00:28:14;4.97;;;2.23;;
12350;SDS011;6240;51.538;7.696;2023-03-23T00:30:42;3.97;;;1.97;;
12350;SDS011;6240;51.538;7.696;2023-03-23T00:33:10;3.27;;;2.10;;
12350;SDS011;6240;51.538;7.696;2023-03-23T00:35:39;4.03;;;2.57;;
12350;SDS011;6240;51.538;7.696;2023-03-23T00:38:07;2.80;;;2.50;;
12350;SDS011;6240;51.538;7.696;2023-03-23T00:40:35;2.27;;;2.07;;
12350;SDS011;6240;51.538;7.696;2023-03-23T00:43:02;3.37;;;2.17;;
12350;SDS011;6240;51.538;7.696;2023-03-23T00:45:29;3.00;;;2.20;;
12350;SDS011;6240;51.538;7.696;2023-03-23T00:47:59;4.90;;;2.20;;
12350;SDS011;6240;51.538;7.696;2023-03-23T00:50:30;4.03;;;2.10;;
12350;SDS011;6240;51.538;7.696;2023-03-23T00:52:57;4.07;;;2.13;;
12350;SDS011;6240;51.538;7.696;2023-03-23T00:55:25;4.10;;;2.23;;
12350;SDS011;6240;51.538;7.696;2023-03-23T00:57:52;2.83;;;2.10;;
12350;SDS011;6240;51.538;7.696;2023-03-23T01:00:20;4.47;;;2.40;;
12350;SDS011;6240;51.538;7.696;2023-03-23T01:02:47;5.17;;;2.80;;
12350;SDS011;6240;51.538;7.696;2023-03-23T01:05:16;3.50;;;2.40;;
12350;SDS011;6240;51.538;7.696;2023-03-23T01:07:44;2.40;;;2.00;;
12350;SDS011;6240;51.538;7.696;2023-03-23T01:10:11;3.53;;;2.20;;
12350;SDS011;6240;51.538;7.696;2023-03-23T01:12:42;2.63;;;1.90;;
12350;SDS011;6240;51.538;7.696;2023-03-23T01:15:12;3.77;;;2.57;;
12350;SDS011;6240;51.538;7.696;2023-03-23T01:17:40;4.37;;;2.40;;
12350;SDS011;6240;51.538;7.696;2023-03-23T01:20:08;3.03;;;1.90;;
12350;SDS011;6240;51.538;7.696;2023-03-23T01:22:35;2.63;;;1.97;;
12350;SDS011;6240;51.538;7.696;2023-03-23T01:25:03;2.57;;;2.07;;
12350;SDS011;6240;51.538;7.696;2023-03-23T01:27:30;3.70;;;2.00;;
12350;SDS011;6240;51.538;7.696;2023-03-23T01:29:59;3.63;;;2.00;;
12350;SDS011;6240;51.538;7.696;2023-03-23T01:32:26;3.40;;;1.70;;
12350;SDS011;6240;51.538;7.696;2023-03-23T01:34:54;2.40;;;1.90;;
12350;SDS011;6240;51.538;7.696;2023-03-23T01:37:21;5.20;;;2.20;;
12350;SDS011;6240;51.538;7.696;2023-03-23T01:39:51;2.03;;;1.80;;
12350;SDS011;6240;51.538;7.696;2023-03-23T01:42:18;2.63;;;1.60;;
12350;SDS011;6240;51.538;7.696;2023-03-23T01:47:34;2.23;;;1.90;;
12350;SDS011;6240;51.538;7.696;2023-03-23T01:50:01;2.83;;;2.00;;
12350;SDS011;6240;51.538;7.696;2023-03-23T01:52:29;2.93;;;2.13;;
12350;SDS011;6240;51.538;7.696;2023-03-23T01:54:56;3.00;;;2.27;;
12350;SDS011;6240;51.538;7.696;2023-03-23T01:57:24;3.53;;;2.10;;
12350;SDS011;6240;51.538;7.696;2023-03-23T01:59:55;3.57;;;2.30;;
12350;SDS011;6240;51.538;7.696;2023-03-23T02:02:23;2.47;;;1.97;;
12350;SDS011;6240;51.538;7.696;2023-03-23T02:04:54;4.97;;;2.33;;
12350;SDS011;6240;51.538;7.696;2023-03-23T02:07:23;2.30;;;2.00;;
12350;SDS011;6240;51.538;7.696;2023-03-23T02:09:51;2.23;;;2.00;;
12350;SDS011;6240;51.538;7.696;2023-03-23T02:12:18;3.03;;;2.20;;
12350;SDS011;6240;51.538;7.696;2023-03-23T02:14:45;2.97;;;1.93;;
12350;SDS011;6240;51.538;7.696;2023-03-23T02:17:14;3.40;;;2.40;;
12350;SDS011;6240;51.538;7.696;2023-03-23T02:19:51;3.93;;;2.03;;
12350;SDS011;6240;51.538;7.696;2023-03-23T02:22:29;2.73;;;2.00;;
12350;SDS011;6240;51.538;7.696;2023-03-23T02:25:05;2.20;;;2.00;;
12350;SDS011;6240;51.538;7.696;2023-03-23T02:27:50;3.93;;;2.07;;
12350;SDS011;6240;51.538;7.696;2023-03-23T02:33:30;3.40;;;2.00;;
12350;SDS011;6240;51.538;7.696;2023-03-23T02:36:01;2.33;;;2.10;;
12350;SDS011;6240;51.538;7.696;2023-03-23T02:38:30;2.47;;;2.10;;
12350;SDS011;6240;51.538;7.696;2023-03-23T02:41:00;2.53;;;1.90;;
12350;SDS011;6240;51.538;7.696;2023-03-23T02:43:30;1.90;;;1.70;;
12350;SDS011;6240;51.538;7.696;2023-03-23T02:45:58;3.00;;;1.90;;
12350;SDS011;6240;51.538;7.696;2023-03-23T02:48:28;2.03;;;1.83;;
12350;SDS011;6240;51.538;7.696;2023-03-23T02:50:58;2.60;;;1.97;;
12350;SDS011;6240;51.538;7.696;2023-03-23T02:53:27;3.37;;;2.00;;
12350;SDS011;6240;51.538;7.696;2023-03-23T02:55:55;1.93;;;1.67;;
12350;SDS011;6240;51.538;7.696;2023-03-23T02:58:23;3.23;;;1.80;;
12350;SDS011;6240;51.538;7.696;2023-03-23T03:00:51;1.60;;;1.50;;
12350;SDS011;6240;51.538;7.696;2023-03-23T03:03:19;2.87;;;2.00;;
12350;SDS011;6240;51.538;7.696;2023-03-23T03:05:49;2.23;;;1.67;;
12350;SDS011;6240;51.538;7.696;2023-03-23T03:08:22;2.90;;;2.10;;
12350;SDS011;6240;51.538;7.696;2023-03-23T03:10:52;2.83;;;1.90;;
12350;SDS011;6240;51.538;7.696;2023-03-23T03:13:24;3.43;;;2.17;;
12350;SDS011;6240;51.538;7.696;2023-03-23T03:15:55;2.00;;;1.80;;
12350;SDS011;6240;51.538;7.696;2023-03-23T03:18:24;2.40;;;1.80;;
12350;SDS011;6240;51.538;7.696;2023-03-23T03:20:54;2.90;;;1.70;;
12350;SDS011;6240;51.538;7.696;2023-03-23T03:23:25;2.10;;;1.90;;
12350;SDS011;6240;51.538;7.696;2023-03-23T03:25:55;3.40;;;2.30;;
12350;SDS011;6240;51.538;7.696;2023-03-23T03:28:23;2.00;;;1.80;;
12350;SDS011;6240;51.538;7.696;2023-03-23T03:30:52;2.23;;;2.03;;
12350;SDS011;6240;51.538;7.696;2023-03-23T03:33:20;2.40;;;2.00;;
12350;SDS011;6240;51.538;7.696;2023-03-23T03:35:51;2.00;;;1.63;;
12350;SDS011;6240;51.538;7.696;2023-03-23T03:38:18;2.47;;;2.23;;
12350;SDS011;6240;51.538;7.696;2023-03-23T03:40:47;1.67;;;1.53;;
12350;SDS011;6240;51.538;7.696;2023-03-23T03:43:14;2.67;;;1.70;;
12350;SDS011;6240;51.538;7.696;2023-03-23T03:45:41;3.37;;;2.00;;
12350;SDS011;6240;51.538;7.696;2023-03-23T03:48:09;1.87;;;1.73;;
12350;SDS011;6240;51.538;7.696;2023-03-23T03:50:36;3.47;;;1.83;;
12350;SDS011;6240;51.538;7.696;2023-03-23T03:53:04;3.13;;;2.00;;
12350;SDS011;6240;51.538;7.696;2023-03-23T03:55:32;2.00;;;1.50;;
12350;SDS011;6240;51.538;7.696;2023-03-23T03:58:02;2.33;;;1.80;;
12350;SDS011;6240;51.538;7.696;2023-03-23T04:00:29;2.40;;;1.70;;
12350;SDS011;6240;51.538;7.696;2023-03-23T04:02:56;1.90;;;1.60;;
12350;SDS011;6240;51.538;7.696;2023-03-23T04:05:25;2.10;;;1.90;;
12350;SDS011;6240;51.538;7.696;2023-03-23T04:07:54;1.70;;;1.60;;
12350;SDS011;6240;51.538;7.696;2023-03-23T04:10:27;1.60;;;1.50;;
12350;SDS011;6240;51.538;7.696;2023-03-23T04:12:54;1.97;;;1.70;;
12350;SDS011;6240;51.538;7.696;2023-03-23T04:15:24;2.70;;;1.67;;
12350;SDS011;6240;51.538;7.696;2023-03-23T04:17:52;1.97;;;1.60;;
12350;SDS011;6240;51.538;7.696;2023-03-23T04:20:22;2.33;;;1.50;;
12350;SDS011;6240;51.538;7.696;2023-03-23T04:22:52;3.80;;;1.67;;
12350;SDS011;6240;51.538;7.696;2023-03-23T04:25:20;2.57;;;1.87;;
12350;SDS011;6240;51.538;7.696;2023-03-23T04:27:47;2.20;;;1.83;;
12350;SDS011;6240;51.538;7.696;2023-03-23T04:30:18;3.17;;;1.60;;
12350;SDS011;6240;51.538;7.696;2023-03-23T04:32:47;1.73;;;1.60;;
12350;SDS011;6240;51.538;7.696;2023-03-23T04:35:17;1.80;;;1.50;;
12350;SDS011;6240;51.538;7.696;2023-03-23T04:37:44;2.13;;;1.47;;
12350;SDS011;6240;51.538;7.696;2023-03-23T04:40:12;1.70;;;1.60;;
12350;SDS011;6240;51.538;7.696;2023-03-23T04:42:40;2.20;;;1.80;;
12350;SDS011;6240;51.538;7.696;2023-03-23T04:45:10;1.60;;;1.50;;
12350;SDS011;6240;51.538;7.696;2023-03-23T04:47:38;2.47;;;1.73;;
12350;SDS011;6240;51.538;7.696;2023-03-23T04:50:09;3.87;;;1.40;;
12350;SDS011;6240;51.538;7.696;2023-03-23T04:52:40;1.90;;;1.70;;
12350;SDS011;6240;51.538;7.696;2023-03-23T04:55:10;1.70;;;1.50;;
12350;SDS011;6240;51.538;7.696;2023-03-23T04:57:38;2.00;;;1.63;;
12350;SDS011;6240;51.538;7.696;2023-03-23T05:00:05;1.90;;;1.47;;
12350;SDS011;6240;51.538;7.696;2023-03-23T05:02:33;2.03;;;1.40;;
12350;SDS011;6240;51.538;7.696;2023-03-23T05:05:00;2.63;;;1.70;;
12350;SDS011;6240;51.538;7.696;2023-03-23T05:07:29;1.77;;;1.53;;
12350;SDS011;6240;51.538;7.696;2023-03-23T05:09:56;4.63;;;1.40;;
12350;SDS011;6240;51.538;7.696;2023-03-23T05:12:23;1.97;;;1.30;;
12350;SDS011;6240;51.538;7.696;2023-03-23T05:14:51;1.60;;;1.50;;
12350;SDS011;6240;51.538;7.696;2023-03-23T05:17:20;1.70;;;1.53;;
12350;SDS011;6240;51.538;7.696;2023-03-23T05:19:50;2.03;;;1.80;;
12350;SDS011;6240;51.538;7.696;2023-03-23T05:22:22;1.83;;;1.43;;
12350;SDS011;6240;51.538;7.696;2023-03-23T05:24:50;1.80;;;1.40;;
12350;SDS011;6240;51.538;7.696;2023-03-23T05:27:18;1.63;;;1.53;;
12350;SDS011;6240;51.538;7.696;2023-03-23T05:29:45;2.33;;;1.87;;
12350;SDS011;6240;51.538;7.696;2023-03-23T05:32:13;2.17;;;1.70;;
12350;SDS011;6240;51.538;7.696;2023-03-23T05:34:41;1.80;;;1.50;;
12350;SDS011;6240;51.538;7.696;2023-03-23T05:37:08;1.80;;;1.50;;
12350;SDS011;6240;51.538;7.696;2023-03-23T05:39:37;2.07;;;1.60;;
12350;SDS011;6240;51.538;7.696;2023-03-23T05:42:06;1.80;;;1.70;;
12350;SDS011;6240;51.538;7.696;2023-03-23T05:44:33;2.50;;;1.70;;
12350;SDS011;6240;51.538;7.696;2023-03-23T05:47:01;2.73;;;1.90;;
12350;SDS011;6240;51.538;7.696;2023-03-23T05:49:28;1.50;;;1.40;;
12350;SDS011;6240;51.538;7.696;2023-03-23T05:51:56;1.93;;;1.57;;
12350;SDS011;6240;51.538;7.696;2023-03-23T05:54:23;2.33;;;1.80;;
12350;SDS011;6240;51.538;7.696;2023-03-23T05:56:50;2.07;;;1.73;;
12350;SDS011;6240;51.538;7.696;2023-03-23T05:59:19;2.63;;;2.33;;
12350;SDS011;6240;51.538;7.696;2023-03-23T06:01:46;2.67;;;1.77;;
12350;SDS011;6240;51.538;7.696;2023-03-23T06:04:14;1.93;;;1.50;;
12350;SDS011;6240;51.538;7.696;2023-03-23T06:06:42;3.30;;;1.57;;
12350;SDS011;6240;51.538;7.696;2023-03-23T06:09:11;1.70;;;1.60;;
12350;SDS011;6240;51.538;7.696;2023-03-23T06:11:41;1.70;;;1.50;;
12350;SDS011;6240;51.538;7.696;2023-03-23T06:14:11;2.87;;;1.70;;
12350;SDS011;6240;51.538;7.696;2023-03-23T06:16:43;1.93;;;1.70;;
12350;SDS011;6240;51.538;7.696;2023-03-23T06:19:12;1.87;;;1.77;;
12350;SDS011;6240;51.538;7.696;2023-03-23T06:21:39;2.77;;;1.80;;
12350;SDS011;6240;51.538;7.696;2023-03-23T06:24:07;3.13;;;2.07;;
12350;SDS011;6240;51.538;7.696;2023-03-23T06:26:35;2.80;;;1.87;;
12350;SDS011;6240;51.538;7.696;2023-03-23T06:29:04;1.70;;;1.60;;
12350;SDS011;6240;51.538;7.696;2023-03-23T06:31:36;2.50;;;1.90;;
12350;SDS011;6240;51.538;7.696;2023-03-23T06:34:07;1.83;;;1.70;;
12350;SDS011;6240;51.538;7.696;2023-03-23T06:36:35;2.97;;;1.93;;
12350;SDS011;6240;51.538;7.696;2023-03-23T06:39:03;1.70;;;1.60;;
12350;SDS011;6240;51.538;7.696;2023-03-23T06:41:32;3.33;;;1.80;;
12350;SDS011;6240;51.538;7.696;2023-03-23T06:44:08;1.93;;;1.80;;
12350;SDS011;6240;51.538;7.696;2023-03-23T06:46:49;3.30;;;1.90;;
12350;SDS011;6240;51.538;7.696;2023-03-23T06:49:19;2.37;;;1.70;;
12350;SDS011;6240;51.538;7.696;2023-03-23T06:51:49;3.03;;;1.50;;
12350;SDS011;6240;51.538;7.696;2023-03-23T06:54:18;2.10;;;1.80;;
12350;SDS011;6240;51.538;7.696;2023-03-23T06:56:45;2.30;;;2.10;;
12350;SDS011;6240;51.538;7.696;2023-03-23T06:59:13;4.00;;;2.20;;
12350;SDS011;6240;51.538;7.696;2023-03-23T07:01:44;2.90;;;1.90;;
12350;SDS011;6240;51.538;7.696;2023-03-23T07:04:13;4.47;;;1.90;;
12350;SDS011;6240;51.538;7.696;2023-03-23T07:06:42;2.47;;;1.70;;
12350;SDS011;6240;51.538;7.696;2023-03-23T07:09:10;2.60;;;1.80;;
12350;SDS011;6240;51.538;7.696;2023-03-23T07:11:37;2.40;;;1.63;;
12350;SDS011;6240;51.538;7.696;2023-03-23T07:14:05;3.57;;;1.70;;
12350;SDS011;6240;51.538;7.696;2023-03-23T07:16:32;3.17;;;1.73;;
12350;SDS011;6240;51.538;7.696;2023-03-23T07:18:59;3.17;;;1.77;;
12350;SDS011;6240;51.538;7.696;2023-03-23T07:21:27;2.87;;;1.53;;
12350;SDS011;6240;51.538;7.696;2023-03-23T07:23:55;3.00;;;2.00;;
12350;SDS011;6240;51.538;7.696;2023-03-23T07:26:23;2.50;;;1.60;;
12350;SDS011;6240;51.538;7.696;2023-03-23T07:28:50;6.37;;;2.10;;
12350;SDS011;6240;51.538;7.696;2023-03-23T07:31:18;2.13;;;1.80;;
12350;SDS011;6240;51.538;7.696;2023-03-23T07:33:45;2.97;;;1.80;;
12350;SDS011;6240;51.538;7.696;2023-03-23T07:36:12;3.40;;;1.80;;
12350;SDS011;6240;51.538;7.696;2023-03-23T07:38:40;2.67;;;1.50;;
12350;SDS011;6240;51.538;7.696;2023-03-23T07:41:08;3.10;;;1.63;;
12350;SDS011;6240;51.538;7.696;2023-03-23T07:43:35;2.57;;;1.70;;
12350;SDS011;6240;51.538;7.696;2023-03-23T07:46:04;3.70;;;1.70;;
12350;SDS011;6240;51.538;7.696;2023-03-23T07:48:32;4.40;;;1.97;;
12350;SDS011;6240;51.538;7.696;2023-03-23T07:50:59;4.10;;;2.30;;
12350;SDS011;6240;51.538;7.696;2023-03-23T07:53:27;3.63;;;2.10;;
12350;SDS011;6240;51.538;7.696;2023-03-23T07:55:54;3.70;;;1.80;;
12350;SDS011;6240;51.538;7.696;2023-03-23T07:58:23;4.43;;;2.00;;
12350;SDS011;6240;51.538;7.696;2023-03-23T08:00:51;4.20;;;1.73;;
12350;SDS011;6240;51.538;7.696;2023-03-23T08:03:19;3.50;;;1.80;;
12350;SDS011;6240;51.538;7.696;2023-03-23T08:05:46;2.67;;;1.90;;
12350;SDS011;6240;51.538;7.696;2023-03-23T08:08:13;3.67;;;1.87;;
12350;SDS011;6240;51.538;7.696;2023-03-23T08:10:41;3.77;;;2.30;;
12350;SDS011;6240;51.538;7.696;2023-03-23T08:13:08;3.77;;;2.03;;
12350;SDS011;6240;51.538;7.696;2023-03-23T08:15:36;6.13;;;2.00;;
12350;SDS011;6240;51.538;7.696;2023-03-23T08:18:04;4.90;;;1.80;;
12350;SDS011;6240;51.538;7.696;2023-03-23T08:20:31;2.77;;;1.77;;
12350;SDS011;6240;51.538;7.696;2023-03-23T08:22:59;4.67;;;1.93;;
12350;SDS011;6240;51.538;7.696;2023-03-23T08:25:27;2.10;;;1.43;;
12350;SDS011;6240;51.538;7.696;2023-03-23T08:27:56;4.03;;;2.00;;
12350;SDS011;6240;51.538;7.696;2023-03-23T08:30:23;2.50;;;1.57;;
12350;SDS011;6240;51.538;7.696;2023-03-23T08:32:57;2.70;;;1.70;;
12350;SDS011;6240;51.538;7.696;2023-03-23T08:35:25;2.90;;;1.63;;
12350;SDS011;6240;51.538;7.696;2023-03-23T08:37:53;3.33;;;2.03;;
12350;SDS011;6240;51.538;7.696;2023-03-23T08:40:22;3.60;;;1.90;;
12350;SDS011;6240;51.538;7.696;2023-03-23T08:42:51;2.77;;;1.70;;
12350;SDS011;6240;51.538;7.696;2023-03-23T08:45:21;2.90;;;1.60;;
12350;SDS011;6240;51.538;7.696;2023-03-23T08:47:56;4.07;;;1.70;;
12350;SDS011;6240;51.538;7.696;2023-03-23T08:50:28;4.07;;;1.97;;
12350;SDS011;6240;51.538;7.696;2023-03-23T08:52:56;2.03;;;1.50;;
12350;SDS011;6240;51.538;7.696;2023-03-23T08:55:23;2.33;;;1.87;;
12350;SDS011;6240;51.538;7.696;2023-03-23T08:57:51;2.47;;;1.70;;
12350;SDS011;6240;51.538;7.696;2023-03-23T09:00:19;4.10;;;1.87;;
12350;SDS011;6240;51.538;7.696;2023-03-23T09:02:49;2.90;;;1.80;;
12350;SDS011;6240;51.538;7.696;2023-03-23T09:05:21;5.53;;;1.73;;
12350;SDS011;6240;51.538;7.696;2023-03-23T09:07:51;4.17;;;1.70;;
12350;SDS011;6240;51.538;7.696;2023-03-23T09:10:19;3.23;;;1.80;;
12350;SDS011;6240;51.538;7.696;2023-03-23T09:12:47;3.50;;;1.73;;
12350;SDS011;6240;51.538;7.696;2023-03-23T09:15:15;3.47;;;1.70;;
12350;SDS011;6240;51.538;7.696;2023-03-23T09:17:43;3.77;;;2.00;;
12350;SDS011;6240;51.538;7.696;2023-03-23T09:20:11;5.27;;;2.07;;
12350;SDS011;6240;51.538;7.696;2023-03-23T09:22:40;2.97;;;1.50;;
12350;SDS011;6240;51.538;7.696;2023-03-23T09:25:09;3.43;;;1.90;;
12350;SDS011;6240;51.538;7.696;2023-03-23T09:27:37;4.27;;;1.60;;
12350;SDS011;6240;51.538;7.696;2023-03-23T09:30:05;5.60;;;1.90;;
12350;SDS011;6240;51.538;7.696;2023-03-23T09:32:33;2.20;;;1.70;;
12350;SDS011;6240;51.538;7.696;2023-03-23T09:35:01;4.00;;;1.80;;
12350;SDS011;6240;51.538;7.696;2023-03-23T09:37:29;4.47;;;2.17;;
12350;SDS011;6240;51.538;7.696;2023-03-23T09:39:57;4.97;;;2.13;;
12350;SDS011;6240;51.538;7.696;2023-03-23T09:42:30;5.67;;;2.40;;
12350;SDS011;6240;51.538;7.696;2023-03-23T09:45:06;6.40;;;2.20;;
12350;SDS011;6240;51.538;7.696;2023-03-23T09:47:37;2.40;;;1.80;;
12350;SDS011;6240;51.538;7.696;2023-03-23T09:50:08;3.57;;;2.27;;
12350;SDS011;6240;51.538;7.696;2023-03-23T09:52:37;3.43;;;2.00;;
12350;SDS011;6240;51.538;7.696;2023-03-23T09:55:07;3.87;;;2.07;;
12350;SDS011;6240;51.538;7.696;2023-03-23T09:57:40;5.80;;;2.13;;
12350;SDS011;6240;51.538;7.696;2023-03-23T10:00:13;2.83;;;1.53;;
12350;SDS011;6240;51.538;7.696;2023-03-23T10:02:45;4.00;;;1.97;;
12350;SDS011;6240;51.538;7.696;2023-03-23T10:05:22;2.93;;;1.90;;
12350;SDS011;6240;51.538;7.696;2023-03-23T10:07:52;4.33;;;2.17;;
12350;SDS011;6240;51.538;7.696;2023-03-23T10:10:19;5.07;;;2.00;;
12350;SDS011;6240;51.538;7.696;2023-03-23T10:12:51;2.93;;;1.70;;
12350;SDS011;6240;51.538;7.696;2023-03-23T10:15:23;3.87;;;1.83;;
12350;SDS011;6240;51.538;7.696;2023-03-23T10:17:54;3.73;;;1.90;;
12350;SDS011;6240;51.538;7.696;2023-03-23T10:20:30;4.20;;;1.90;;
12350;SDS011;6240;51.538;7.696;2023-03-23T10:23:05;7.73;;;2.40;;
12350;SDS011;6240;51.538;7.696;2023-03-23T10:25:34;4.17;;;2.07;;
12350;SDS011;6240;51.538;7.696;2023-03-23T10:28:08;4.07;;;2.10;;
12350;SDS011;6240;51.538;7.696;2023-03-23T10:30:38;5.03;;;1.90;;
12350;SDS011;6240;51.538;7.696;2023-03-23T10:33:08;6.57;;;2.00;;
12350;SDS011;6240;51.538;7.696;2023-03-23T10:35:38;4.80;;;1.80;;
12350;SDS011;6240;51.538;7.696;2023-03-23T10:38:10;7.50;;;2.20;;
12350;SDS011;6240;51.538;7.696;2023-03-23T10:40:43;6.50;;;2.00;;
12350;SDS011;6240;51.538;7.696;2023-03-23T10:43:14;3.73;;;1.77;;
12350;SDS011;6240;51.538;7.696;2023-03-23T10:45:42;4.03;;;1.93;;
12350;SDS011;6240;51.538;7.696;2023-03-23T10:48:12;6.23;;;2.97;;
12350;SDS011;6240;51.538;7.696;2023-03-23T10:50:41;3.90;;;1.90;;
12350;SDS011;6240;51.538;7.696;2023-03-23T10:53:12;4.67;;;1.50;;
12350;SDS011;6240;51.538;7.696;2023-03-23T10:55:41;2.53;;;1.50;;
12350;SDS011;6240;51.538;7.696;2023-03-23T10:58:10;2.63;;;1.07;;
12350;SDS011;6240;51.538;7.696;2023-03-23T11:00:44;4.50;;;1.30;;
12350;SDS011;6240;51.538;7.696;2023-03-23T11:03:25;2.53;;;1.40;;
12350;SDS011;6240;51.538;7.696;2023-03-23T11:05:55;4.07;;;1.70;;
12350;SDS011;6240;51.538;7.696;2023-03-23T11:08:24;2.07;;;1.30;;
12350;SDS011;6240;51.538;7.696;2023-03-23T11:10:53;2.67;;;1.50;;
12350;SDS011;6240;51.538;7.696;2023-03-23T11:13:29;2.70;;;1.40;;
12350;SDS011;6240;51.538;7.696;2023-03-23T11:15:58;3.13;;;1.40;;
12350;SDS011;6240;51.538;7.696;2023-03-23T11:18:26;4.70;;;1.40;;
12350;SDS011;6240;51.538;7.696;2023-03-23T11:20:55;5.43;;;1.23;;
12350;SDS011;6240;51.538;7.696;2023-03-23T11:23:23;3.30;;;1.60;;
12350;SDS011;6240;51.538;7.696;2023-03-23T11:25:53;1.40;;;1.30;;
12350;SDS011;6240;51.538;7.696;2023-03-23T11:28:21;3.17;;;1.53;;
12350;SDS011;6240;51.538;7.696;2023-03-23T11:30:50;2.30;;;1.47;;
12350;SDS011;6240;51.538;7.696;2023-03-23T11:33:20;2.90;;;1.60;;
12350;SDS011;6240;51.538;7.696;2023-03-23T11:35:50;2.60;;;1.33;;
12350;SDS011;6240;51.538;7.696;2023-03-23T11:38:22;3.03;;;1.50;;
12350;SDS011;6240;51.538;7.696;2023-03-23T11:40:53;3.43;;;1.40;;
12350;SDS011;6240;51.538;7.696;2023-03-23T11:43:21;1.70;;;1.40;;
12350;SDS011;6240;51.538;7.696;2023-03-23T11:45:50;2.57;;;1.77;;
12350;SDS011;6240;51.538;7.696;2023-03-23T11:48:25;2.53;;;1.50;;
12350;SDS011;6240;51.538;7.696;2023-03-23T11:50:54;2.60;;;1.60;;
12350;SDS011;6240;51.538;7.696;2023-03-23T11:53:23;2.87;;;1.70;;
12350;SDS011;6240;51.538;7.696;2023-03-23T11:55:53;3.93;;;1.57;;
12350;SDS011;6240;51.538;7.696;2023-03-23T11:58:22;3.63;;;1.90;;
12350;SDS011;6240;51.538;7.696;2023-03-23T12:00:51;2.10;;;1.70;;
12350;SDS011;6240;51.538;7.696;2023-03-23T12:03:20;2.37;;;1.87;;
12350;SDS011;6240;51.538;7.696;2023-03-23T12:05:52;4.20;;;1.63;;
12350;SDS011;6240;51.538;7.696;2023-03-23T12:08:24;2.93;;;2.10;;
12350;SDS011;6240;51.538;7.696;2023-03-23T12:10:59;5.60;;;3.00;;
12350;SDS011;6240;51.538;7.696;2023-03-23T12:13:36;4.67;;;3.03;;
12350;SDS011;6240;51.538;7.696;2023-03-23T12:16:09;5.27;;;3.17;;
12350;SDS011;6240;51.538;7.696;2023-03-23T12:18:45;4.00;;;3.47;;
12350;SDS011;6240;51.538;7.696;2023-03-23T12:21:18;5.27;;;4.50;;
12350;SDS011;6240;51.538;7.696;2023-03-23T12:23:49;4.67;;;4.10;;
12350;SDS011;6240;51.538;7.696;2023-03-23T12:26:20;5.37;;;4.80;;
12350;SDS011;6240;51.538;7.696;2023-03-23T12:28:59;5.57;;;4.80;;
12350;SDS011;6240;51.538;7.696;2023-03-23T12:31:31;5.37;;;4.37;;
12350;SDS011;6240;51.538;7.696;2023-03-23T12:34:03;6.03;;;5.43;;
12350;SDS011;6240;51.538;7.696;2023-03-23T12:36:44;5.03;;;4.53;;
12350;SDS011;6240;51.538;7.696;2023-03-23T12:41:59;6.50;;;5.90;;
12350;SDS011;6240;51.538;7.696;2023-03-23T12:44:32;5.50;;;5.00;;
12350;SDS011;6240;51.538;7.696;2023-03-23T12:47:07;5.17;;;4.67;;
12350;SDS011;6240;51.538;7.696;2023-03-23T12:49:39;8.07;;;5.23;;
12350;SDS011;6240;51.538;7.696;2023-03-23T12:52:13;5.93;;;5.33;;
12350;SDS011;6240;51.538;7.696;2023-03-23T12:54:42;5.63;;;5.03;;
12350;SDS011;6240;51.538;7.696;2023-03-23T12:57:16;5.67;;;5.13;;
12350;SDS011;6240;51.538;7.696;2023-03-23T12:59:44;7.43;;;5.20;;
12350;SDS011;6240;51.538;7.696;2023-03-23T13:02:16;5.63;;;5.03;;
12350;SDS011;6240;51.538;7.696;2023-03-23T13:04:49;5.40;;;4.90;;
12350;SDS011;6240;51.538;7.696;2023-03-23T13:07:25;5.73;;;5.23;;
12350;SDS011;6240;51.538;7.696;2023-03-23T13:10:05;6.03;;;5.50;;
12350;SDS011;6240;51.538;7.696;2023-03-23T13:12:35;5.23;;;4.23;;
12350;SDS011;6240;51.538;7.696;2023-03-23T13:15:08;5.20;;;4.47;;
12350;SDS011;6240;51.538;7.696;2023-03-23T13:17:44;4.37;;;3.97;;
12350;SDS011;6240;51.538;7.696;2023-03-23T13:20:37;4.60;;;4.07;;
12350;SDS011;6240;51.538;7.696;2023-03-23T13:23:10;3.87;;;3.40;;
12350;SDS011;6240;51.538;7.696;2023-03-23T13:25:52;3.93;;;3.60;;
12350;SDS011;6240;51.538;7.696;2023-03-23T13:28:22;4.70;;;3.30;;
12350;SDS011;6240;51.538;7.696;2023-03-23T13:30:55;4.17;;;3.77;;
12350;SDS011;6240;51.538;7.696;2023-03-23T13:33:22;5.33;;;3.53;;
12350;SDS011;6240;51.538;7.696;2023-03-23T13:35:50;3.97;;;3.37;;
12350;SDS011;6240;51.538;7.696;2023-03-23T13:38:21;3.50;;;3.20;;
12350;SDS011;6240;51.538;7.696;2023-03-23T13:40:51;4.60;;;3.30;;
12350;SDS011;6240;51.538;7.696;2023-03-23T13:43:26;3.63;;;2.70;;
12350;SDS011;6240;51.538;7.696;2023-03-23T13:45:54;4.17;;;3.20;;
12350;SDS011;6240;51.538;7.696;2023-03-23T13:48:22;2.90;;;2.30;;
12350;SDS011;6240;51.538;7.696;2023-03-23T13:50:51;2.93;;;2.50;;
12350;SDS011;6240;51.538;7.696;2023-03-23T13:53:25;2.83;;;2.27;;
12350;SDS011;6240;51.538;7.696;2023-03-23T13:56:07;2.80;;;2.27;;
12350;SDS011;6240;51.538;7.696;2023-03-23T13:58:45;2.70;;;2.10;;
12350;SDS011;6240;51.538;7.696;2023-03-23T14:01:14;2.40;;;1.73;;
12350;SDS011;6240;51.538;7.696;2023-03-23T14:03:42;2.47;;;1.90;;
12350;SDS011;6240;51.538;7.696;2023-03-23T14:06:12;3.50;;;2.10;;
12350;SDS011;6240;51.538;7.696;2023-03-23T14:08:42;5.30;;;2.53;;
12350;SDS011;6240;51.538;7.696;2023-03-23T14:11:11;6.20;;;2.40;;
12350;SDS011;6240;51.538;7.696;2023-03-23T14:13:40;2.53;;;2.33;;
12350;SDS011;6240;51.538;7.696;2023-03-23T14:16:14;3.77;;;2.43;;
12350;SDS011;6240;51.538;7.696;2023-03-23T14:18:47;3.87;;;2.40;;
12350;SDS011;6240;51.538;7.696;2023-03-23T14:21:17;3.47;;;2.37;;
12350;SDS011;6240;51.538;7.696;2023-03-23T14:23:50;2.53;;;2.03;;
12350;SDS011;6240;51.538;7.696;2023-03-23T14:26:20;4.47;;;2.67;;
12350;SDS011;6240;51.538;7.696;2023-03-23T14:28:49;3.83;;;2.60;;
12350;SDS011;6240;51.538;7.696;2023-03-23T14:31:19;3.70;;;3.40;;
12350;SDS011;6240;51.538;7.696;2023-03-23T14:33:50;5.50;;;3.80;;
12350;SDS011;6240;51.538;7.696;2023-03-23T14:36:20;6.77;;;4.30;;
12350;SDS011;6240;51.538;7.696;2023-03-23T14:38:54;5.03;;;4.60;;
12350;SDS011;6240;51.538;7.696;2023-03-23T14:41:27;6.97;;;5.13;;
12350;SDS011;6240;51.538;7.696;2023-03-23T14:43:58;7.27;;;5.67;;
12350;SDS011;6240;51.538;7.696;2023-03-23T14:46:30;6.33;;;5.67;;
12350;SDS011;6240;51.538;7.696;2023-03-23T14:49:00;7.73;;;6.50;;
12350;SDS011;6240;51.538;7.696;2023-03-23T14:51:29;9.03;;;7.40;;
12350;SDS011;6240;51.538;7.696;2023-03-23T14:53:58;7.57;;;6.77;;
12350;SDS011;6240;51.538;7.696;2023-03-23T14:56:31;8.83;;;7.93;;
12350;SDS011;6240;51.538;7.696;2023-03-23T14:59:02;8.70;;;7.30;;
12350;SDS011;6240;51.538;7.696;2023-03-23T15:01:30;8.97;;;7.67;;
12350;SDS011;6240;51.538;7.696;2023-03-23T15:03:59;9.67;;;8.10;;
12350;SDS011;6240;51.538;7.696;2023-03-23T15:06:28;9.80;;;8.80;;
12350;SDS011;6240;51.538;7.696;2023-03-23T15:09:00;11.37;;;8.40;;
12350;SDS011;6240;51.538;7.696;2023-03-23T15:11:29;10.97;;;7.90;;
12350;SDS011;6240;51.538;7.696;2023-03-23T15:13:56;7.90;;;7.10;;
12350;SDS011;6240;51.538;7.696;2023-03-23T15:16:29;8.13;;;6.50;;
12350;SDS011;6240;51.538;7.696;2023-03-23T15:18:59;8.00;;;5.47;;
12350;SDS011;6240;51.538;7.696;2023-03-23T15:21:27;8.00;;;6.13;;
12350;SDS011;6240;51.538;7.696;2023-03-23T15:23:55;5.20;;;4.57;;